Map

Track Data

SID SEASON NUMBER BASIN SUBBASIN NAME ISO_TIME NATURE LAT LON WMO_WIND WMO_PRES WMO_AGENCY TRACK_TYPE DIST2LAND LANDFALL IFLAG USA_AGENCY USA_ATCF_ID USA_LAT USA_LON USA_RECORD USA_STATUS USA_WIND USA_PRES USA_SSHS USA_R34_NE USA_R34_SE USA_R34_SW USA_R34_NW USA_R50_NE USA_R50_SE USA_R50_SW USA_R50_NW USA_R64_NE USA_R64_SE USA_R64_SW USA_R64_NW USA_POCI USA_ROCI USA_RMW USA_EYE TOKYO_LAT TOKYO_LON TOKYO_GRADE TOKYO_WIND TOKYO_PRES TOKYO_R50_DIR TOKYO_R50_LONG TOKYO_R50_SHORT TOKYO_R30_DIR TOKYO_R30_LONG TOKYO_R30_SHORT TOKYO_LAND CMA_LAT CMA_LON CMA_CAT CMA_WIND CMA_PRES HKO_LAT HKO_LON HKO_CAT HKO_WIND HKO_PRES NEWDELHI_LAT NEWDELHI_LON NEWDELHI_GRADE NEWDELHI_WIND NEWDELHI_PRES NEWDELHI_CI NEWDELHI_DP NEWDELHI_POCI REUNION_LAT REUNION_LON REUNION_TYPE REUNION_WIND REUNION_PRES REUNION_TNUM REUNION_CI REUNION_RMW REUNION_R34_NE REUNION_R34_SE REUNION_R34_SW REUNION_R34_NW REUNION_R50_NE REUNION_R50_SE REUNION_R50_SW REUNION_R50_NW REUNION_R64_NE REUNION_R64_SE REUNION_R64_SW REUNION_R64_NW BOM_LAT BOM_LON BOM_TYPE BOM_WIND BOM_PRES BOM_TNUM BOM_CI BOM_RMW BOM_R34_NE BOM_R34_SE BOM_R34_SW BOM_R34_NW BOM_R50_NE BOM_R50_SE BOM_R50_SW BOM_R50_NW BOM_R64_NE BOM_R64_SE BOM_R64_SW BOM_R64_NW BOM_ROCI BOM_POCI BOM_EYE BOM_POS_METHOD BOM_PRES_METHOD NADI_LAT NADI_LON NADI_CAT NADI_WIND NADI_PRES WELLINGTON_LAT WELLINGTON_LON WELLINGTON_WIND WELLINGTON_PRES DS824_LAT DS824_LON DS824_STAGE DS824_WIND DS824_PRES TD9636_LAT TD9636_LON TD9636_STAGE TD9636_WIND TD9636_PRES TD9635_LAT TD9635_LON TD9635_WIND TD9635_PRES TD9635_ROCI NEUMANN_LAT NEUMANN_LON NEUMANN_CLASS NEUMANN_WIND NEUMANN_PRES MLC_LAT MLC_LON MLC_CLASS MLC_WIND MLC_PRES USA_GUST BOM_GUST BOM_GUST_PER REUNION_GUST REUNION_GUST_PER USA_SEAHGT USA_SEARAD_NE USA_SEARAD_SE USA_SEARAD_SW USA_SEARAD_NW STORM_SPEED STORM_DIR
1857335S15422 1858 19 SI MM NOT_NAMED 1857-11-30 18:00:00 NR -15.0000 61.8000 main 717 701 __________O___ -1 -15.0000 61.8000 7 2 234
1857335S15422 1858 19 SI MM NOT_NAMED 1857-11-30 21:00:00 NR -15.0608 61.7121 main 701 695 __________P___ -1 -15.0608 61.7121 7 2 232
1857335S15422 1858 19 SI MM NOT_NAMED 1857-12-01 00:00:00 NR -15.1473 61.6094 main 695 671 __________P___ -1 -15.1473 61.6094 7 3 225
1857335S15422 1858 19 SI MM NOT_NAMED 1857-12-01 03:00:00 NR -15.2852 61.4770 main 671 640 __________P___ -1 -15.2852 61.4770 7 5 220
1857335S15422 1858 19 SI MM NOT_NAMED 1857-12-01 06:00:00 NR -15.5000 61.3000 main 640 600 __________O___ -1 -15.5000 61.3000 7 7 217
1857335S15422 1858 19 SI MM NOT_NAMED 1857-12-01 09:00:00 NR -15.8074 61.0702 main 600 545 __________P___ -1 -15.8074 61.0702 7 8 215
1857335S15422 1858 19 SI MM NOT_NAMED 1857-12-01 12:00:00 NR -16.1828 60.8083 main 545 496 __________P___ -1 -16.1828 60.8083 7 9 213
1857335S15422 1858 19 SI MM NOT_NAMED 1857-12-01 15:00:00 NR -16.5918 60.5421 main 490 442 __________P___ -1 -16.5918 60.5421 7 10 211
1857335S15422 1858 19 SI MM NOT_NAMED 1857-12-01 18:00:00 NR -17.0000 60.3000 main 442 402 __________O___ -1 -17.0000 60.3000 7 9 208
1857335S15422 1858 19 SI MM NOT_NAMED 1857-12-01 21:00:00 NR -17.3611 60.1128 main 393 361 __________P___ -1 -17.3611 60.1128 7 8 205
1857335S15422 1858 19 SI MM NOT_NAMED 1857-12-02 00:00:00 NR -17.7148 59.9546 main 361 322 __________P___ -1 -17.7148 59.9546 7 8 202
1857335S15422 1858 19 SI MM NOT_NAMED 1857-12-02 03:00:00 NR -18.0611 59.8191 main 314 283 __________P___ -1 -18.0611 59.8191 7 7 199
1857335S15422 1858 19 SI MM NOT_NAMED 1857-12-02 06:00:00 NR -18.4000 59.7000 main 283 253 __________O___ -1 -18.4000 59.7000 7 7 199
1857335S15422 1858 19 SI MM NOT_NAMED 1857-12-02 09:00:00 NR -18.7403 59.5694 main 253 219 __________P___ -1 -18.7403 59.5694 7 7 199
1857335S15422 1858 19 SI MM NOT_NAMED 1857-12-02 12:00:00 NR -19.0725 59.4550 main 219 194 __________P___ -1 -19.0725 59.4550 7 7 197
1857335S15422 1858 19 SI MM NOT_NAMED 1857-12-02 15:00:00 NR -19.3934 59.3632 main 194 170 __________P___ -1 -19.3934 59.3632 7 6 193
1857335S15422 1858 19 SI MM NOT_NAMED 1857-12-02 18:00:00 NR -19.7000 59.3000 main 170 162 __________O___ -1 -19.7000 59.3000 7 6 190
1857335S15422 1858 19 SI MM NOT_NAMED 1857-12-02 21:00:00 NR -19.9609 59.2630 main 160 156 __________P___ -1 -19.9609 59.2630 7 5 185
1857335S15422 1858 19 SI MM NOT_NAMED 1857-12-03 00:00:00 NR -20.2125 59.2549 main 156 156 __________P___ -1 -20.2125 59.2549 7 5 180
1857335S15422 1858 19 SI MM NOT_NAMED 1857-12-03 03:00:00 NR -20.4828 59.2694 main 157 157 __________P___ -1 -20.4828 59.2694 7 6 175
1857335S15422 1858 19 SI MM NOT_NAMED 1857-12-03 06:00:00 NR -20.8000 59.3000 main 165 165 __________O___ -1 -20.8000 59.3000 7 7 176
1857335S15422 1858 19 SI MM NOT_NAMED 1857-12-03 09:00:00 NR -21.1956 59.3117 main 183 183 __________P___ -1 -21.1956 59.3117 7 8 177
1857335S15422 1858 19 SI MM NOT_NAMED 1857-12-03 12:00:00 NR -21.6399 59.3408 main 206 206 __________P___ -1 -21.6399 59.3408 7 9 175
1857335S15422 1858 19 SI MM NOT_NAMED 1857-12-03 15:00:00 NR -22.1143 59.3994 main 251 251 __________P___ -1 -22.1143 59.3994 7 10 171
1857335S15422 1858 19 SI MM NOT_NAMED 1857-12-03 18:00:00 NR -22.6000 59.5000 main 299 299 __________O___ -1 -22.6000 59.5000 7 10 167
1857335S15422 1858 19 SI MM NOT_NAMED 1857-12-03 21:00:00 NR -23.0818 59.6508 main 356 356 __________P___ -1 -23.0818 59.6508 7 10 162
1857335S15422 1858 19 SI MM NOT_NAMED 1857-12-04 00:00:00 NR -23.5579 59.8431 main 408 408 __________P___ -1 -23.5579 59.8431 7 10 158
1857335S15422 1858 19 SI MM NOT_NAMED 1857-12-04 03:00:00 NR -24.0300 60.0640 main 462 462 __________P___ -1 -24.0300 60.0640 7 10 156
1857335S15422 1858 19 SI MM NOT_NAMED 1857-12-04 06:00:00 NR -24.5000 60.3000 main 520 __________O___ -1 -24.5000 60.3000 7 10 156

About IBTrACS Database

This database is a web-friendly format of International Best Track Archive for Climate Stewardship (IBTrACS), a global best track data archive curated by NOAA dating back to 1842.

Updated: 2021-10-08